CheckWX is a tool to help pilots better visualize weather data.  It is not intended as a substitute for an official pre-flight weather briefing.

18:09:35 UTC

KELP METAR
El Paso International Airport
El Paso, Texas, USA
Current

19 mins ago

KELP 241751Z 00000KT 10SM FEW065 SCT250 20/06 A3000 RMK AO2 SLP111 T02000056 10206 20117 58005
Observed
Apr-24 @ 17:51 UTC
Visibility
10 SM
Flight Rules
VFR
Cloud Levels
  • Few at 6,500' AGL
  • Scattered at 25,000' AGL
Temperature
20°C / 68°F
Dewpoint
C / 43°F
Humidity
40%
Altimeter
30" Hg
Pressure
1015.92 hPa
Previous

1 hour ago

KELP 241651Z 36005KT 10SM FEW065 FEW250 19/06 A3002 RMK AO2 SLP117 T01940061
Observed
Apr-24 @ 16:51 UTC
Wind
  • 360° at 5 KTS
Visibility
10 SM
Flight Rules
VFR
Cloud Levels
  • Few at 6,500' AGL
  • Few at 25,000' AGL
Temperature
19°C / 66°F
Dewpoint
C / 43°F
Humidity
43%
Altimeter
30.02" Hg
Pressure
1016.62 hPa
Previous

2 hours ago

KELP 241551Z 01009KT 10SM FEW060 FEW250 17/07 A3002 RMK AO2 SLP120 T01720067
Observed
Apr-24 @ 15:51 UTC
Wind
  • 010° at 9 KTS
Visibility
10 SM
Flight Rules
VFR
Cloud Levels
  • Few at 6,000' AGL
  • Few at 25,000' AGL
Temperature
17°C / 63°F
Dewpoint
C / 45°F
Humidity
52%
Altimeter
30.02" Hg
Pressure
1016.62 hPa